sensor_id;sensor_type;location;lat;lon;timestamp;pressure;altitude;pressure_sealevel;temperature;humidity
24440;BME280;12618;54.386;18.394;2023-07-08T00:02:23;100388.67;;;16.19;79.19
24440;BME280;12618;54.386;18.394;2023-07-08T00:04:54;100385.97;;;16.20;79.22
24440;BME280;12618;54.386;18.394;2023-07-08T00:07:26;100390.19;;;16.17;78.62
24440;BME280;12618;54.386;18.394;2023-07-08T00:09:58;100382.98;;;16.19;78.93
24440;BME280;12618;54.386;18.394;2023-07-08T00:12:30;100384.39;;;16.25;78.78
24440;BME280;12618;54.386;18.394;2023-07-08T00:15:03;100384.59;;;16.22;78.89
24440;BME280;12618;54.386;18.394;2023-07-08T00:17:36;100385.73;;;16.17;78.69
24440;BME280;12618;54.386;18.394;2023-07-08T00:20:31;100383.73;;;16.15;78.95
24440;BME280;12618;54.386;18.394;2023-07-08T00:23:04;100386.58;;;16.12;79.38
24440;BME280;12618;54.386;18.394;2023-07-08T00:25:37;100384.15;;;16.12;78.99
24440;BME280;12618;54.386;18.394;2023-07-08T00:28:16;100384.21;;;16.11;78.62
24440;BME280;12618;54.386;18.394;2023-07-08T00:30:48;100377.88;;;16.10;78.62
24440;BME280;12618;54.386;18.394;2023-07-08T00:33:20;100381.48;;;16.06;79.53
24440;BME280;12618;54.386;18.394;2023-07-08T00:35:52;100383.69;;;16.01;78.66
24440;BME280;12618;54.386;18.394;2023-07-08T00:38:26;100385.17;;;16.00;78.26
24440;BME280;12618;54.386;18.394;2023-07-08T00:43:53;100384.29;;;15.94;79.72
24440;BME280;12618;54.386;18.394;2023-07-08T00:51:42;100378.77;;;15.83;79.87
24440;BME280;12618;54.386;18.394;2023-07-08T00:54:18;100379.14;;;15.82;79.68
24440;BME280;12618;54.386;18.394;2023-07-08T00:56:55;100379.06;;;15.86;79.93
24440;BME280;12618;54.386;18.394;2023-07-08T00:59:35;100379.73;;;15.90;79.77
24440;BME280;12618;54.386;18.394;2023-07-08T01:02:11;100378.22;;;15.91;79.55
24440;BME280;12618;54.386;18.394;2023-07-08T01:04:52;100379.87;;;15.93;79.53
24440;BME280;12618;54.386;18.394;2023-07-08T01:07:26;100378.13;;;15.96;79.97
24440;BME280;12618;54.386;18.394;2023-07-08T01:10:06;100378.21;;;15.95;78.85
24440;BME280;12618;54.386;18.394;2023-07-08T01:12:48;100376.61;;;15.86;79.35
24440;BME280;12618;54.386;18.394;2023-07-08T01:15:24;100377.29;;;15.89;79.03
24440;BME280;12618;54.386;18.394;2023-07-08T01:18:01;100378.24;;;15.91;79.28
24440;BME280;12618;54.386;18.394;2023-07-08T01:20:34;100373.86;;;15.93;78.99
24440;BME280;12618;54.386;18.394;2023-07-08T01:23:05;100378.42;;;15.97;78.81
24440;BME280;12618;54.386;18.394;2023-07-08T01:25:37;100374.77;;;15.96;78.72
24440;BME280;12618;54.386;18.394;2023-07-08T01:28:09;100372.74;;;15.94;79.17
24440;BME280;12618;54.386;18.394;2023-07-08T01:30:43;100374.20;;;15.90;79.29
24440;BME280;12618;54.386;18.394;2023-07-08T01:33:18;100374.90;;;15.85;79.17
24440;BME280;12618;54.386;18.394;2023-07-08T01:35:51;100369.89;;;15.82;79.16
24440;BME280;12618;54.386;18.394;2023-07-08T01:38:25;100368.64;;;15.83;79.50
24440;BME280;12618;54.386;18.394;2023-07-08T01:40:58;100362.77;;;15.83;79.06
24440;BME280;12618;54.386;18.394;2023-07-08T01:43:33;100359.92;;;15.71;78.78
24440;BME280;12618;54.386;18.394;2023-07-08T01:46:21;100353.82;;;15.57;79.21
24440;BME280;12618;54.386;18.394;2023-07-08T01:48:58;100353.23;;;15.49;80.13
24440;BME280;12618;54.386;18.394;2023-07-08T01:51:31;100350.88;;;15.50;80.20
24440;BME280;12618;54.386;18.394;2023-07-08T01:54:03;100353.61;;;15.51;79.87
24440;BME280;12618;54.386;18.394;2023-07-08T01:56:34;100345.55;;;15.50;79.99
24440;BME280;12618;54.386;18.394;2023-07-08T01:59:06;100345.36;;;15.50;79.33
24440;BME280;12618;54.386;18.394;2023-07-08T02:01:38;100342.77;;;15.52;78.89
24440;BME280;12618;54.386;18.394;2023-07-08T02:04:10;100342.89;;;15.47;78.86
24440;BME280;12618;54.386;18.394;2023-07-08T02:06:42;100345.12;;;15.39;79.31
24440;BME280;12618;54.386;18.394;2023-07-08T02:09:13;100343.98;;;15.34;79.07
24440;BME280;12618;54.386;18.394;2023-07-08T02:11:45;100342.80;;;15.26;78.63
24440;BME280;12618;54.386;18.394;2023-07-08T02:14:17;100342.84;;;15.23;79.16
24440;BME280;12618;54.386;18.394;2023-07-08T02:16:49;100345.95;;;15.27;79.18
24440;BME280;12618;54.386;18.394;2023-07-08T02:19:22;100345.13;;;15.36;79.10
24440;BME280;12618;54.386;18.394;2023-07-08T02:21:53;100348.31;;;15.36;78.84
24440;BME280;12618;54.386;18.394;2023-07-08T02:24:25;100346.56;;;15.32;79.13
24440;BME280;12618;54.386;18.394;2023-07-08T02:26:58;100345.48;;;15.29;78.24
24440;BME280;12618;54.386;18.394;2023-07-08T02:29:30;100347.41;;;15.29;78.64
24440;BME280;12618;54.386;18.394;2023-07-08T02:32:04;100350.40;;;15.27;79.07
24440;BME280;12618;54.386;18.394;2023-07-08T02:34:37;100352.54;;;15.33;80.28
24440;BME280;12618;54.386;18.394;2023-07-08T02:37:08;100348.00;;;15.38;80.00
24440;BME280;12618;54.386;18.394;2023-07-08T02:39:40;100352.25;;;15.41;80.91
24440;BME280;12618;54.386;18.394;2023-07-08T02:42:12;100349.33;;;15.40;80.75
24440;BME280;12618;54.386;18.394;2023-07-08T02:44:44;100349.82;;;15.41;82.27
24440;BME280;12618;54.386;18.394;2023-07-08T02:47:16;100353.28;;;15.45;83.26
24440;BME280;12618;54.386;18.394;2023-07-08T02:49:48;100351.42;;;15.49;84.15
24440;BME280;12618;54.386;18.394;2023-07-08T02:52:20;100349.90;;;15.55;84.50
24440;BME280;12618;54.386;18.394;2023-07-08T02:54:52;100350.98;;;15.60;83.78
24440;BME280;12618;54.386;18.394;2023-07-08T02:57:23;100351.09;;;15.68;84.13
24440;BME280;12618;54.386;18.394;2023-07-08T02:59:55;100349.19;;;15.70;82.37
24440;BME280;12618;54.386;18.394;2023-07-08T03:02:27;100349.19;;;15.67;82.54
24440;BME280;12618;54.386;18.394;2023-07-08T03:04:59;100345.31;;;15.63;82.58
24440;BME280;12618;54.386;18.394;2023-07-08T03:07:32;100346.77;;;15.57;83.28
24440;BME280;12618;54.386;18.394;2023-07-08T03:10:04;100344.73;;;15.52;83.94
24440;BME280;12618;54.386;18.394;2023-07-08T03:12:36;100345.70;;;15.56;83.78
24440;BME280;12618;54.386;18.394;2023-07-08T03:15:08;100347.15;;;15.65;83.62
24440;BME280;12618;54.386;18.394;2023-07-08T03:17:40;100345.34;;;15.72;83.13
24440;BME280;12618;54.386;18.394;2023-07-08T03:20:13;100344.30;;;15.74;83.21
24440;BME280;12618;54.386;18.394;2023-07-08T03:22:45;100339.91;;;15.83;84.40
24440;BME280;12618;54.386;18.394;2023-07-08T03:25:17;100342.45;;;15.93;84.69
24440;BME280;12618;54.386;18.394;2023-07-08T03:27:51;100340.98;;;16.03;85.51
24440;BME280;12618;54.386;18.394;2023-07-08T03:30:24;100338.77;;;16.13;84.24
24440;BME280;12618;54.386;18.394;2023-07-08T03:32:55;100336.92;;;16.14;83.40
24440;BME280;12618;54.386;18.394;2023-07-08T03:35:28;100332.04;;;16.10;82.76
24440;BME280;12618;54.386;18.394;2023-07-08T03:38:00;100332.51;;;16.05;82.94
24440;BME280;12618;54.386;18.394;2023-07-08T03:40:32;100331.15;;;16.07;82.59
24440;BME280;12618;54.386;18.394;2023-07-08T03:43:04;100326.64;;;16.09;81.43
24440;BME280;12618;54.386;18.394;2023-07-08T03:45:35;100328.99;;;16.05;81.04
24440;BME280;12618;54.386;18.394;2023-07-08T03:48:10;100328.95;;;15.99;80.62
24440;BME280;12618;54.386;18.394;2023-07-08T03:50:43;100334.71;;;15.98;80.14
24440;BME280;12618;54.386;18.394;2023-07-08T03:53:15;100335.37;;;15.96;80.35
24440;BME280;12618;54.386;18.394;2023-07-08T03:55:49;100340.83;;;15.93;80.42
24440;BME280;12618;54.386;18.394;2023-07-08T03:58:21;100338.52;;;15.97;80.28
24440;BME280;12618;54.386;18.394;2023-07-08T04:00:53;100336.06;;;15.99;80.08
24440;BME280;12618;54.386;18.394;2023-07-08T04:03:25;100335.06;;;16.01;80.21
24440;BME280;12618;54.386;18.394;2023-07-08T04:05:57;100331.20;;;16.06;80.05
24440;BME280;12618;54.386;18.394;2023-07-08T04:08:29;100332.04;;;16.10;79.87
24440;BME280;12618;54.386;18.394;2023-07-08T04:11:01;100333.55;;;16.17;80.17
24440;BME280;12618;54.386;18.394;2023-07-08T04:13:33;100342.69;;;16.22;79.50
24440;BME280;12618;54.386;18.394;2023-07-08T04:16:06;100341.98;;;16.24;79.18
24440;BME280;12618;54.386;18.394;2023-07-08T04:18:38;100341.61;;;16.28;79.07
24440;BME280;12618;54.386;18.394;2023-07-08T04:21:10;100342.00;;;16.33;79.51
24440;BME280;12618;54.386;18.394;2023-07-08T04:23:45;100337.63;;;16.46;80.12
24440;BME280;12618;54.386;18.394;2023-07-08T04:26:18;100339.14;;;16.59;79.65
24440;BME280;12618;54.386;18.394;2023-07-08T04:28:50;100335.56;;;16.70;79.95
24440;BME280;12618;54.386;18.394;2023-07-08T04:31:22;100333.94;;;16.82;80.40
24440;BME280;12618;54.386;18.394;2023-07-08T04:33:55;100336.64;;;16.96;79.63
24440;BME280;12618;54.386;18.394;2023-07-08T04:36:27;100330.83;;;17.06;78.96
24440;BME280;12618;54.386;18.394;2023-07-08T04:38:58;100336.44;;;17.12;78.06
24440;BME280;12618;54.386;18.394;2023-07-08T04:41:32;100333.25;;;17.17;77.93
24440;BME280;12618;54.386;18.394;2023-07-08T04:44:04;100329.25;;;17.24;78.02
24440;BME280;12618;54.386;18.394;2023-07-08T04:49:14;100335.26;;;17.52;79.55
24440;BME280;12618;54.386;18.394;2023-07-08T04:51:47;100335.87;;;17.66;79.51
24440;BME280;12618;54.386;18.394;2023-07-08T04:54:18;100343.55;;;17.82;79.64
24440;BME280;12618;54.386;18.394;2023-07-08T04:56:50;100346.64;;;17.96;80.06
24440;BME280;12618;54.386;18.394;2023-07-08T04:59:25;100345.98;;;18.06;79.15
24440;BME280;12618;54.386;18.394;2023-07-08T05:01:57;100351.30;;;18.09;78.93
24440;BME280;12618;54.386;18.394;2023-07-08T05:04:28;100348.66;;;18.09;79.09
24440;BME280;12618;54.386;18.394;2023-07-08T05:07:00;100345.39;;;18.04;78.63
24440;BME280;12618;54.386;18.394;2023-07-08T05:09:32;100339.73;;;18.01;79.57
24440;BME280;12618;54.386;18.394;2023-07-08T05:12:04;100332.38;;;17.97;80.02
24440;BME280;12618;54.386;18.394;2023-07-08T05:14:37;100329.84;;;17.92;80.81
24440;BME280;12618;54.386;18.394;2023-07-08T05:17:09;100330.34;;;17.90;81.29
24440;BME280;12618;54.386;18.394;2023-07-08T05:19:41;100330.42;;;17.89;80.44
24440;BME280;12618;54.386;18.394;2023-07-08T05:22:14;100331.88;;;17.96;80.50
24440;BME280;12618;54.386;18.394;2023-07-08T05:24:50;100328.98;;;18.12;78.69
24440;BME280;12618;54.386;18.394;2023-07-08T05:27:24;100328.42;;;18.23;78.57
24440;BME280;12618;54.386;18.394;2023-07-08T05:29:56;100327.17;;;18.28;78.56
24440;BME280;12618;54.386;18.394;2023-07-08T05:32:28;100323.81;;;18.33;78.48
24440;BME280;12618;54.386;18.394;2023-07-08T05:35:00;100314.13;;;18.41;78.78
24440;BME280;12618;54.386;18.394;2023-07-08T05:37:31;100312.17;;;18.51;76.12
24440;BME280;12618;54.386;18.394;2023-07-08T05:40:03;100313.22;;;18.59;74.41
24440;BME280;12618;54.386;18.394;2023-07-08T05:42:36;100315.52;;;18.69;74.38
24440;BME280;12618;54.386;18.394;2023-07-08T05:45:08;100314.13;;;18.81;74.28
24440;BME280;12618;54.386;18.394;2023-07-08T05:47:41;100309.91;;;18.95;73.70
24440;BME280;12618;54.386;18.394;2023-07-08T05:50:13;100311.38;;;19.12;72.65
24440;BME280;12618;54.386;18.394;2023-07-08T05:52:45;100309.98;;;19.25;72.57
24440;BME280;12618;54.386;18.394;2023-07-08T05:55:20;100313.25;;;19.39;72.30
24440;BME280;12618;54.386;18.394;2023-07-08T05:57:51;100311.88;;;19.50;72.16
24440;BME280;12618;54.386;18.394;2023-07-08T06:00:23;100314.92;;;19.62;70.97
24440;BME280;12618;54.386;18.394;2023-07-08T06:03:00;100312.56;;;19.72;69.11
24440;BME280;12618;54.386;18.394;2023-07-08T06:05:33;100310.70;;;19.84;71.08
24440;BME280;12618;54.386;18.394;2023-07-08T06:08:06;100310.70;;;20.07;68.86
24440;BME280;12618;54.386;18.394;2023-07-08T06:10:43;100310.58;;;20.32;70.28
24440;BME280;12618;54.386;18.394;2023-07-08T06:13:15;100313.16;;;20.49;66.24
24440;BME280;12618;54.386;18.394;2023-07-08T06:15:47;100316.23;;;20.55;64.09
24440;BME280;12618;54.386;18.394;2023-07-08T06:18:20;100319.70;;;20.52;63.32
24440;BME280;12618;54.386;18.394;2023-07-08T06:20:54;100314.58;;;20.63;64.81
24440;BME280;12618;54.386;18.394;2023-07-08T06:23:26;100317.61;;;20.76;64.30
24440;BME280;12618;54.386;18.394;2023-07-08T06:25:58;100319.38;;;20.87;64.67
24440;BME280;12618;54.386;18.394;2023-07-08T06:28:29;100319.98;;;20.93;62.25
24440;BME280;12618;54.386;18.394;2023-07-08T06:31:01;100317.16;;;21.01;62.53
24440;BME280;12618;54.386;18.394;2023-07-08T06:33:33;100318.88;;;21.08;61.13
24440;BME280;12618;54.386;18.394;2023-07-08T06:36:05;100317.63;;;21.22;61.71
24440;BME280;12618;54.386;18.394;2023-07-08T06:38:39;100319.63;;;21.49;61.56
24440;BME280;12618;54.386;18.394;2023-07-08T06:41:13;100324.36;;;21.69;62.33
24440;BME280;12618;54.386;18.394;2023-07-08T06:43:45;100320.29;;;22.03;61.08
24440;BME280;12618;54.386;18.394;2023-07-08T06:46:17;100321.80;;;22.29;58.86
24440;BME280;12618;54.386;18.394;2023-07-08T06:48:50;100316.91;;;22.53;59.99
24440;BME280;12618;54.386;18.394;2023-07-08T06:51:22;100315.55;;;22.81;57.45
24440;BME280;12618;54.386;18.394;2023-07-08T06:53:54;100312.38;;;23.18;58.44
24440;BME280;12618;54.386;18.394;2023-07-08T06:56:25;100309.16;;;23.57;57.94
24440;BME280;12618;54.386;18.394;2023-07-08T06:59:00;100308.55;;;24.07;55.52
24440;BME280;12618;54.386;18.394;2023-07-08T07:01:32;100305.91;;;24.41;54.44
24440;BME280;12618;54.386;18.394;2023-07-08T07:04:04;100307.69;;;24.56;54.60
24440;BME280;12618;54.386;18.394;2023-07-08T07:06:36;100309.66;;;24.87;54.72
24440;BME280;12618;54.386;18.394;2023-07-08T07:09:08;100308.41;;;25.36;54.34
24440;BME280;12618;54.386;18.394;2023-07-08T07:11:40;100309.91;;;25.59;52.01
24440;BME280;12618;54.386;18.394;2023-07-08T07:14:11;100309.71;;;25.89;49.31
24440;BME280;12618;54.386;18.394;2023-07-08T07:16:46;100306.17;;;26.52;49.58
24440;BME280;12618;54.386;18.394;2023-07-08T07:19:38;100304.77;;;27.06;48.50
24440;BME280;12618;54.386;18.394;2023-07-08T07:22:10;100297.59;;;27.60;49.62
24440;BME280;12618;54.386;18.394;2023-07-08T07:24:42;100300.48;;;28.06;45.95
24440;BME280;12618;54.386;18.394;2023-07-08T07:27:14;100303.11;;;28.73;44.05
24440;BME280;12618;54.386;18.394;2023-07-08T07:29:49;100308.15;;;29.44;44.67
24440;BME280;12618;54.386;18.394;2023-07-08T07:32:23;100313.91;;;29.97;40.37
24440;BME280;12618;54.386;18.394;2023-07-08T07:34:55;100311.58;;;30.39;40.39
24440;BME280;12618;54.386;18.394;2023-07-08T07:37:29;100312.48;;;30.78;38.31
24440;BME280;12618;54.386;18.394;2023-07-08T07:40:00;100315.14;;;30.91;37.82
24440;BME280;12618;54.386;18.394;2023-07-08T07:42:32;100314.98;;;31.02;37.10
24440;BME280;12618;54.386;18.394;2023-07-08T07:45:05;100310.27;;;31.36;37.40
24440;BME280;12618;54.386;18.394;2023-07-08T07:47:38;100311.84;;;31.55;36.16
24440;BME280;12618;54.386;18.394;2023-07-08T07:50:10;100308.97;;;31.93;35.81
24440;BME280;12618;54.386;18.394;2023-07-08T07:52:42;100313.43;;;32.12;33.25
24440;BME280;12618;54.386;18.394;2023-07-08T07:55:17;100317.18;;;32.24;32.10
24440;BME280;12618;54.386;18.394;2023-07-08T07:57:49;100317.66;;;32.31;32.21
24440;BME280;12618;54.386;18.394;2023-07-08T08:00:21;100318.85;;;32.57;31.65
24440;BME280;12618;54.386;18.394;2023-07-08T08:02:53;100313.84;;;32.93;32.32
24440;BME280;12618;54.386;18.394;2023-07-08T08:05:25;100310.99;;;32.94;30.43
24440;BME280;12618;54.386;18.394;2023-07-08T08:07:58;100318.99;;;32.79;30.05
24440;BME280;12618;54.386;18.394;2023-07-08T08:10:30;100319.51;;;33.00;31.75
24440;BME280;12618;54.386;18.394;2023-07-08T08:13:04;100318.60;;;33.42;29.79
24440;BME280;12618;54.386;18.394;2023-07-08T08:15:36;100319.90;;;33.65;30.24
24440;BME280;12618;54.386;18.394;2023-07-08T08:18:08;100319.70;;;33.93;29.24
24440;BME280;12618;54.386;18.394;2023-07-08T08:20:40;100321.46;;;34.13;29.46
24440;BME280;12618;54.386;18.394;2023-07-08T08:23:12;100321.90;;;34.51;28.68
24440;BME280;12618;54.386;18.394;2023-07-08T08:25:44;100327.63;;;34.69;27.92
24440;BME280;12618;54.386;18.394;2023-07-08T08:28:16;100322.77;;;34.58;27.31
24440;BME280;12618;54.386;18.394;2023-07-08T08:30:49;100329.17;;;34.65;26.90
24440;BME280;12618;54.386;18.394;2023-07-08T08:33:22;100331.30;;;34.83;27.51
24440;BME280;12618;54.386;18.394;2023-07-08T08:35:54;100330.56;;;34.97;27.44
24440;BME280;12618;54.386;18.394;2023-07-08T08:38:26;100329.63;;;35.31;27.38
24440;BME280;12618;54.386;18.394;2023-07-08T08:40:57;100330.17;;;35.33;26.93
24440;BME280;12618;54.386;18.394;2023-07-08T08:43:35;100335.02;;;35.05;26.06
24440;BME280;12618;54.386;18.394;2023-07-08T08:49:03;100327.10;;;35.10;26.49
24440;BME280;12618;54.386;18.394;2023-07-08T08:51:37;100328.20;;;35.40;26.37
24440;BME280;12618;54.386;18.394;2023-07-08T08:54:08;100328.73;;;35.57;26.04
24440;BME280;12618;54.386;18.394;2023-07-08T09:02:35;100334.65;;;35.09;25.67
24440;BME280;12618;54.386;18.394;2023-07-08T09:05:10;100331.80;;;35.06;25.92
24440;BME280;12618;54.386;18.394;2023-07-08T09:10:41;100326.68;;;35.47;25.48
24440;BME280;12618;54.386;18.394;2023-07-08T09:13:25;100332.55;;;35.47;24.91
24440;BME280;12618;54.386;18.394;2023-07-08T09:16:06;100329.98;;;35.24;25.05
24440;BME280;12618;54.386;18.394;2023-07-08T09:18:54;100325.48;;;35.26;25.06
24440;BME280;12618;54.386;18.394;2023-07-08T09:21:34;100321.55;;;35.42;25.99
24440;BME280;12618;54.386;18.394;2023-07-08T09:24:44;100321.41;;;35.71;25.29
24440;BME280;12618;54.386;18.394;2023-07-08T09:27:17;100319.90;;;35.77;24.69
24440;BME280;12618;54.386;18.394;2023-07-08T09:29:48;100320.89;;;35.82;24.75
24440;BME280;12618;54.386;18.394;2023-07-08T09:32:23;100319.43;;;35.99;24.58
24440;BME280;12618;54.386;18.394;2023-07-08T09:35:03;100323.29;;;36.00;24.00
24440;BME280;12618;54.386;18.394;2023-07-08T09:37:37;100320.23;;;36.15;24.92
24440;BME280;12618;54.386;18.394;2023-07-08T09:40:21;100321.22;;;36.21;23.75
24440;BME280;12618;54.386;18.394;2023-07-08T09:43:42;100324.03;;;36.22;23.61
24440;BME280;12618;54.386;18.394;2023-07-08T09:45:48;100323.89;;;35.86;24.04
24440;BME280;12618;54.386;18.394;2023-07-08T09:48:28;100323.23;;;35.35;24.16
24440;BME280;12618;54.386;18.394;2023-07-08T09:51:01;100323.88;;;34.78;24.81
24440;BME280;12618;54.386;18.394;2023-07-08T09:53:34;100329.17;;;34.86;24.91
24440;BME280;12618;54.386;18.394;2023-07-08T09:56:08;100323.82;;;35.07;24.64
24440;BME280;12618;54.386;18.394;2023-07-08T09:58:41;100324.65;;;35.17;24.93
24440;BME280;12618;54.386;18.394;2023-07-08T10:01:23;100318.14;;;34.89;24.27
24440;BME280;12618;54.386;18.394;2023-07-08T10:04:01;100319.74;;;34.51;25.04
24440;BME280;12618;54.386;18.394;2023-07-08T10:06:34;100315.28;;;34.69;25.83
24440;BME280;12618;54.386;18.394;2023-07-08T10:09:12;100316.37;;;34.92;25.02
24440;BME280;12618;54.386;18.394;2023-07-08T10:11:56;100316.65;;;34.61;25.50
24440;BME280;12618;54.386;18.394;2023-07-08T10:14:52;100319.39;;;34.59;25.39
24440;BME280;12618;54.386;18.394;2023-07-08T10:17:24;100318.59;;;34.23;25.30
24440;BME280;12618;54.386;18.394;2023-07-08T10:19:57;100319.35;;;34.15;25.50
24440;BME280;12618;54.386;18.394;2023-07-08T10:22:40;100317.92;;;34.16;26.10
24440;BME280;12618;54.386;18.394;2023-07-08T10:25:28;100311.80;;;34.43;26.44
24440;BME280;12618;54.386;18.394;2023-07-08T10:31:14;100313.71;;;34.22;24.87
24440;BME280;12618;54.386;18.394;2023-07-08T10:34:17;100307.85;;;33.95;24.79
24440;BME280;12618;54.386;18.394;2023-07-08T10:37:07;100307.38;;;34.12;24.72
24440;BME280;12618;54.386;18.394;2023-07-08T10:39:53;100307.47;;;34.23;25.11
24440;BME280;12618;54.386;18.394;2023-07-08T10:45:15;100303.36;;;33.83;26.17
24440;BME280;12618;54.386;18.394;2023-07-08T10:48:01;100300.90;;;33.69;26.98
24440;BME280;12618;54.386;18.394;2023-07-08T10:50:51;100300.30;;;33.46;26.19
24440;BME280;12618;54.386;18.394;2023-07-08T10:56:16;100303.92;;;33.05;26.39
24440;BME280;12618;54.386;18.394;2023-07-08T11:01:42;100290.63;;;32.98;26.39
24440;BME280;12618;54.386;18.394;2023-07-08T11:04:22;100287.14;;;33.45;26.57
24440;BME280;12618;54.386;18.394;2023-07-08T11:07:26;100283.50;;;34.04;25.60
24440;BME280;12618;54.386;18.394;2023-07-08T11:10:46;100288.67;;;33.90;24.55
24440;BME280;12618;54.386;18.394;2023-07-08T11:13:06;100286.52;;;33.46;25.50
24440;BME280;12618;54.386;18.394;2023-07-08T11:16:19;100282.70;;;33.56;25.14
24440;BME280;12618;54.386;18.394;2023-07-08T11:20:02;100277.01;;;33.31;25.59
24440;BME280;12618;54.386;18.394;2023-07-08T11:22:13;100278.64;;;33.44;26.31
24440;BME280;12618;54.386;18.394;2023-07-08T11:24:49;100282.77;;;33.71;25.83
24440;BME280;12618;54.386;18.394;2023-07-08T11:27:30;100283.58;;;33.77;25.31
24440;BME280;12618;54.386;18.394;2023-07-08T11:30:16;100282.41;;;33.73;25.68
24440;BME280;12618;54.386;18.394;2023-07-08T11:32:54;100284.45;;;33.78;25.80
24440;BME280;12618;54.386;18.394;2023-07-08T11:38:15;100280.58;;;33.43;29.72
24440;BME280;12618;54.386;18.394;2023-07-08T11:41:10;100274.21;;;33.05;29.85
24440;BME280;12618;54.386;18.394;2023-07-08T11:43:47;100269.02;;;32.39;30.80
24440;BME280;12618;54.386;18.394;2023-07-08T11:46:24;100272.86;;;31.66;31.88
24440;BME280;12618;54.386;18.394;2023-07-08T11:49:05;100274.35;;;30.93;32.35
24440;BME280;12618;54.386;18.394;2023-07-08T11:51:40;100277.23;;;30.76;32.81
24440;BME280;12618;54.386;18.394;2023-07-08T11:54:28;100279.71;;;30.16;34.42
24440;BME280;12618;54.386;18.394;2023-07-08T11:57:05;100282.38;;;30.13;35.19
24440;BME280;12618;54.386;18.394;2023-07-08T11:59:38;100285.09;;;30.45;34.81
24440;BME280;12618;54.386;18.394;2023-07-08T12:02:16;100288.48;;;30.20;34.48
24440;BME280;12618;54.386;18.394;2023-07-08T12:05:03;100293.80;;;29.97;34.98
24440;BME280;12618;54.386;18.394;2023-07-08T12:07:46;100293.20;;;29.70;35.19
24440;BME280;12618;54.386;18.394;2023-07-08T12:10:22;100289.34;;;29.39;35.35
24440;BME280;12618;54.386;18.394;2023-07-08T12:12:57;100289.11;;;28.58;36.37
24440;BME280;12618;54.386;18.394;2023-07-08T12:15:31;100290.45;;;28.27;36.79
24440;BME280;12618;54.386;18.394;2023-07-08T12:20:56;100292.30;;;28.09;36.96
24440;BME280;12618;54.386;18.394;2023-07-08T12:23:29;100289.61;;;28.30;36.93
24440;BME280;12618;54.386;18.394;2023-07-08T12:26:00;100286.99;;;28.34;36.09
24440;BME280;12618;54.386;18.394;2023-07-08T12:28:36;100287.95;;;27.84;36.00
24440;BME280;12618;54.386;18.394;2023-07-08T12:31:15;100283.44;;;27.74;36.98
24440;BME280;12618;54.386;18.394;2023-07-08T12:33:48;100286.91;;;28.07;36.28
24440;BME280;12618;54.386;18.394;2023-07-08T12:36:22;100288.20;;;28.15;37.07
24440;BME280;12618;54.386;18.394;2023-07-08T12:38:58;100288.02;;;28.23;35.98
24440;BME280;12618;54.386;18.394;2023-07-08T12:41:33;100285.08;;;28.03;36.09
24440;BME280;12618;54.386;18.394;2023-07-08T12:44:22;100287.99;;;27.75;36.21
24440;BME280;12618;54.386;18.394;2023-07-08T12:46:54;100288.96;;;27.63;36.58
24440;BME280;12618;54.386;18.394;2023-07-08T12:49:27;100286.75;;;27.37;36.47
24440;BME280;12618;54.386;18.394;2023-07-08T12:52:00;100287.29;;;26.98;37.21
24440;BME280;12618;54.386;18.394;2023-07-08T12:54:32;100287.65;;;26.43;37.66
24440;BME280;12618;54.386;18.394;2023-07-08T12:57:05;100291.24;;;26.37;38.10
24440;BME280;12618;54.386;18.394;2023-07-08T12:59:40;100290.11;;;26.62;38.31
24440;BME280;12618;54.386;18.394;2023-07-08T13:02:19;100290.14;;;26.82;38.31
24440;BME280;12618;54.386;18.394;2023-07-08T13:04:59;100291.84;;;26.97;38.26
24440;BME280;12618;54.386;18.394;2023-07-08T13:07:36;100292.27;;;27.07;37.85
24440;BME280;12618;54.386;18.394;2023-07-08T13:10:19;100292.78;;;26.56;37.64
24440;BME280;12618;54.386;18.394;2023-07-08T13:12:59;100293.60;;;26.19;38.42
24440;BME280;12618;54.386;18.394;2023-07-08T13:15:35;100294.73;;;26.24;38.92
24440;BME280;12618;54.386;18.394;2023-07-08T13:18:15;100294.88;;;26.40;39.42
24440;BME280;12618;54.386;18.394;2023-07-08T13:20:52;100292.23;;;26.51;38.36
24440;BME280;12618;54.386;18.394;2023-07-08T13:23:26;100293.92;;;26.64;38.53
24440;BME280;12618;54.386;18.394;2023-07-08T13:25:58;100290.16;;;26.74;38.31
24440;BME280;12618;54.386;18.394;2023-07-08T13:28:36;100291.95;;;26.74;38.27
24440;BME280;12618;54.386;18.394;2023-07-08T13:33:55;100289.84;;;26.29;39.43
24440;BME280;12618;54.386;18.394;2023-07-08T13:36:36;100290.48;;;26.18;39.34
24440;BME280;12618;54.386;18.394;2023-07-08T13:39:12;100286.59;;;26.16;39.97
24440;BME280;12618;54.386;18.394;2023-07-08T13:41:46;100288.48;;;26.17;39.72
24440;BME280;12618;54.386;18.394;2023-07-08T13:44:17;100288.52;;;26.27;39.96
24440;BME280;12618;54.386;18.394;2023-07-08T13:46:51;100293.05;;;26.16;39.79
24440;BME280;12618;54.386;18.394;2023-07-08T13:49:29;100291.54;;;25.80;39.70
24440;BME280;12618;54.386;18.394;2023-07-08T13:52:15;100287.83;;;25.88;40.54
24440;BME280;12618;54.386;18.394;2023-07-08T13:57:28;100288.70;;;25.85;40.29
24440;BME280;12618;54.386;18.394;2023-07-08T14:00:01;100295.57;;;25.74;41.04
24440;BME280;12618;54.386;18.394;2023-07-08T14:02:33;100300.29;;;25.45;41.32
24440;BME280;12618;54.386;18.394;2023-07-08T14:05:08;100294.43;;;25.18;41.85
24440;BME280;12618;54.386;18.394;2023-07-08T14:07:42;100298.92;;;25.14;42.35